createdAt,value
2023-01-18T00:00:04.454Z,-2.38
2023-01-18T00:01:04.381Z,-2.39
2023-01-18T00:02:04.495Z,-2.36
2023-01-18T00:03:04.355Z,-2.38
2023-01-18T00:04:04.350Z,-2.36
2023-01-18T00:05:04.424Z,-2.35
2023-01-18T00:06:04.343Z,-2.36
2023-01-18T00:07:04.343Z,-2.36
2023-01-18T00:08:04.294Z,-2.38
2023-01-18T00:09:04.295Z,-2.38
2023-01-18T00:10:04.302Z,-2.36
2023-01-18T00:11:04.269Z,-2.38
2023-01-18T00:12:04.236Z,-2.36
2023-01-18T00:13:04.260Z,-2.35
2023-01-18T00:14:04.246Z,-2.35
2023-01-18T00:15:04.207Z,-2.35
2023-01-18T00:16:04.322Z,-2.36
2023-01-18T00:17:04.202Z,-2.35
2023-01-18T00:18:04.204Z,-2.32
2023-01-18T00:19:04.224Z,-2.32
2023-01-18T00:20:04.166Z,-2.32
2023-01-18T00:21:04.141Z,-2.33
2023-01-18T00:22:04.169Z,-2.32
2023-01-18T00:23:04.119Z,-2.33
2023-01-18T00:24:04.116Z,-2.33
2023-01-18T00:25:04.137Z,-2.35
2023-01-18T00:26:04.119Z,-2.33
2023-01-18T00:27:04.087Z,-2.33
2023-01-18T00:28:04.092Z,-2.36
2023-01-18T00:29:04.054Z,-2.35
2023-01-18T00:30:04.044Z,-2.35
2023-01-18T00:31:04.072Z,-2.33
2023-01-18T00:32:04.047Z,-2.32
2023-01-18T00:33:04.012Z,-2.32
2023-01-18T00:34:04.032Z,-2.29
2023-01-18T00:35:04.044Z,-2.28
2023-01-18T00:36:04.003Z,-2.28
2023-01-18T00:37:04.005Z,-2.32
2023-01-18T00:38:03.963Z,-2.29
2023-01-18T00:39:03.994Z,-2.32
2023-01-18T00:40:03.965Z,-2.32
2023-01-18T00:41:03.957Z,-2.32
2023-01-18T00:42:03.932Z,-2.32
2023-01-18T00:43:03.927Z,-2.29
2023-01-18T00:44:03.893Z,-2.29
2023-01-18T00:45:03.900Z,-2.26
2023-01-18T00:46:03.927Z,-2.29
2023-01-18T00:47:03.882Z,-2.28
2023-01-18T00:48:03.853Z,-2.26
2023-01-18T00:49:03.851Z,-2.24
2023-01-18T00:50:03.826Z,-2.26
2023-01-18T00:51:03.839Z,-2.23
2023-01-18T00:52:03.799Z,-2.24
2023-01-18T00:53:03.794Z,-2.26
2023-01-18T00:54:03.831Z,-2.24
2023-01-18T00:55:03.812Z,-2.23
2023-01-18T00:56:03.759Z,-2.23
2023-01-18T00:57:03.805Z,-2.21
2023-01-18T00:58:03.771Z,-2.23
2023-01-18T00:59:03.729Z,-2.23
2023-01-18T01:00:03.718Z,-2.24
2023-01-18T01:01:03.914Z,-2.24
2023-01-18T01:02:03.937Z,-2.23
2023-01-18T01:03:03.680Z,-2.24
2023-01-18T01:04:03.695Z,-2.24
2023-01-18T01:05:03.664Z,-2.24
2023-01-18T01:06:03.645Z,-2.21
2023-01-18T01:07:03.675Z,-2.21
2023-01-18T01:08:03.650Z,-2.21
2023-01-18T01:09:03.606Z,-2.20
2023-01-18T01:10:03.710Z,-2.18
2023-01-18T01:11:03.623Z,-2.21
2023-01-18T01:12:03.628Z,-2.21
2023-01-18T01:13:03.586Z,-2.23
2023-01-18T01:14:03.544Z,-2.21
2023-01-18T01:15:03.590Z,-2.23
2023-01-18T01:16:03.536Z,-2.23
2023-01-18T01:17:03.540Z,-2.21
2023-01-18T01:18:03.516Z,-2.21
2023-01-18T01:19:03.529Z,-2.23
2023-01-18T01:20:03.508Z,-2.23
2023-01-18T01:21:03.477Z,-2.23
2023-01-18T01:22:03.496Z,-2.23
2023-01-18T01:23:03.452Z,-2.23
2023-01-18T01:24:03.479Z,-2.21
2023-01-18T01:25:03.442Z,-2.21
2023-01-18T01:26:03.480Z,-2.23
2023-01-18T01:27:03.425Z,-2.23
2023-01-18T01:28:03.455Z,-2.21
2023-01-18T01:29:03.418Z,-2.21
2023-01-18T01:30:03.407Z,-2.21
2023-01-18T01:31:03.504Z,-2.20
2023-01-18T01:32:03.369Z,-2.18
2023-01-18T01:33:03.363Z,-2.20
2023-01-18T01:34:03.353Z,-2.20
2023-01-18T01:35:03.339Z,-2.20
2023-01-18T01:36:03.331Z,-2.21
2023-01-18T01:37:03.325Z,-2.21
2023-01-18T01:38:03.293Z,-2.20
2023-01-18T01:39:03.285Z,-2.21
2023-01-18T01:40:03.296Z,-2.21
2023-01-18T01:41:03.285Z,-2.21
2023-01-18T01:42:03.267Z,-2.23
2023-01-18T01:43:03.268Z,-2.20
2023-01-18T01:44:03.236Z,-2.18
2023-01-18T01:45:03.243Z,-2.16
2023-01-18T01:46:03.237Z,-2.18
2023-01-18T01:47:03.275Z,-2.17
2023-01-18T01:48:03.203Z,-2.17
2023-01-18T01:49:03.167Z,-2.17
2023-01-18T01:50:03.202Z,-2.18
2023-01-18T01:51:03.161Z,-2.18
2023-01-18T01:52:03.223Z,-2.17
2023-01-18T01:53:03.136Z,-2.17
2023-01-18T01:54:03.127Z,-2.17
2023-01-18T01:55:03.116Z,-2.17
2023-01-18T01:56:03.107Z,-2.17
2023-01-18T01:57:03.096Z,-2.16
2023-01-18T01:58:03.092Z,-2.18
2023-01-18T01:59:03.145Z,-2.16
2023-01-18T02:00:03.078Z,-2.16
2023-01-18T02:01:03.225Z,-2.16
2023-01-18T02:02:03.091Z,-2.14
2023-01-18T02:03:03.093Z,-2.16
2023-01-18T02:04:03.011Z,-2.17
2023-01-18T02:05:02.992Z,-2.17
2023-01-18T02:06:02.999Z,-2.17
2023-01-18T02:07:02.977Z,-2.16
2023-01-18T02:08:02.966Z,-2.17
2023-01-18T02:09:02.994Z,-2.17
2023-01-18T02:10:02.947Z,-2.16
2023-01-18T02:11:02.946Z,-2.16
2023-01-18T02:12:02.912Z,-2.17
2023-01-18T02:13:02.942Z,-2.16
2023-01-18T02:14:02.936Z,-2.16
2023-01-18T02:15:02.913Z,-2.16
2023-01-18T02:16:02.889Z,-2.16
2023-01-18T02:17:02.883Z,-2.14
2023-01-18T02:18:02.894Z,-2.16
2023-01-18T02:19:02.884Z,-2.16
2023-01-18T02:20:02.837Z,-2.16
2023-01-18T02:21:02.811Z,-2.16
2023-01-18T02:22:02.822Z,-2.16
2023-01-18T02:23:02.801Z,-2.16
2023-01-18T02:24:02.809Z,-2.17
2023-01-18T02:25:02.786Z,-2.17
2023-01-18T02:26:02.764Z,-2.17
2023-01-18T02:27:02.748Z,-2.16
2023-01-18T02:28:02.755Z,-2.17
2023-01-18T02:29:02.821Z,-2.16
2023-01-18T02:30:02.750Z,-2.16
2023-01-18T02:31:02.727Z,-2.16
2023-01-18T02:32:02.716Z,-2.14
2023-01-18T02:33:02.700Z,-2.14
2023-01-18T02:34:02.682Z,-2.13
2023-01-18T02:35:02.691Z,-2.13
2023-01-18T02:36:02.662Z,-2.14
2023-01-18T02:37:02.658Z,-2.14
2023-01-18T02:38:02.661Z,-2.14
2023-01-18T02:39:02.642Z,-2.13
2023-01-18T02:40:02.686Z,-2.13
2023-01-18T02:41:02.604Z,-2.14
2023-01-18T02:42:02.609Z,-2.13
2023-01-18T02:43:02.619Z,-2.13
2023-01-18T02:44:02.591Z,-2.13
2023-01-18T02:45:02.605Z,-2.11
2023-01-18T02:46:02.626Z,-2.13
2023-01-18T02:47:02.528Z,-2.11
2023-01-18T02:48:02.521Z,-2.11
2023-01-18T02:49:02.533Z,-2.13
2023-01-18T02:50:02.517Z,-2.13
2023-01-18T02:51:02.549Z,-2.11
2023-01-18T02:52:02.473Z,-2.10
2023-01-18T02:53:02.464Z,-2.11
2023-01-18T02:54:02.459Z,-2.10
2023-01-18T02:55:02.456Z,-2.11
2023-01-18T02:56:02.435Z,-2.10
2023-01-18T02:57:02.463Z,-2.11
2023-01-18T02:58:02.409Z,-2.10
2023-01-18T02:59:02.419Z,-2.10
2023-01-18T03:00:02.402Z,-2.11
2023-01-18T03:01:02.416Z,-2.14
2023-01-18T03:02:02.427Z,-2.13
2023-01-18T03:03:02.425Z,-2.13
2023-01-18T03:04:02.343Z,-2.11
2023-01-18T03:05:02.348Z,-2.10
2023-01-18T03:06:02.333Z,-2.08
2023-01-18T03:07:02.342Z,-2.08
2023-01-18T03:08:02.311Z,-2.06
2023-01-18T03:09:02.300Z,-2.08
2023-01-18T03:10:02.274Z,-2.06
2023-01-18T03:11:02.278Z,-2.06
2023-01-18T03:12:02.333Z,-2.06
2023-01-18T03:13:02.292Z,-2.06
2023-01-18T03:14:02.261Z,-2.06
2023-01-18T03:15:02.219Z,-2.08
2023-01-18T03:16:02.352Z,-2.08
2023-01-18T03:17:02.216Z,-2.11
2023-01-18T03:18:02.221Z,-2.08
2023-01-18T03:19:02.215Z,-2.08
2023-01-18T03:20:02.207Z,-2.08
2023-01-18T03:21:02.167Z,-2.10
2023-01-18T03:22:02.158Z,-2.11
2023-01-18T03:23:02.161Z,-2.10
2023-01-18T03:24:02.128Z,-2.11
2023-01-18T03:25:02.114Z,-2.11
2023-01-18T03:26:02.113Z,-2.11
2023-01-18T03:27:02.129Z,-2.11
2023-01-18T03:28:02.167Z,-2.11
2023-01-18T03:29:02.091Z,-2.10
2023-01-18T03:30:02.067Z,-2.10
2023-01-18T03:31:02.128Z,-2.10
2023-01-18T03:32:02.044Z,-2.11
2023-01-18T03:33:02.033Z,-2.11
2023-01-18T03:34:02.059Z,-2.11
2023-01-18T03:35:02.014Z,-2.11
2023-01-18T03:36:02.044Z,-2.10
2023-01-18T03:37:01.981Z,-2.08
2023-01-18T03:38:02.005Z,-2.10
2023-01-18T03:39:01.988Z,-2.11
2023-01-18T03:40:01.972Z,-2.08
2023-01-18T03:41:01.964Z,-2.10
2023-01-18T03:42:01.931Z,-2.10
2023-01-18T03:43:01.937Z,-2.08
2023-01-18T03:44:01.928Z,-2.11
2023-01-18T03:45:01.907Z,-2.08
2023-01-18T03:46:01.917Z,-2.10
2023-01-18T03:47:01.892Z,-2.10
2023-01-18T03:48:01.876Z,-2.10
2023-01-18T03:49:01.878Z,-2.10
2023-01-18T03:50:01.913Z,-2.11
2023-01-18T03:51:01.844Z,-2.11
2023-01-18T03:52:01.827Z,-2.08
2023-01-18T03:53:01.865Z,-2.10
2023-01-18T03:54:01.801Z,-2.11
2023-01-18T03:55:01.828Z,-2.08
2023-01-18T03:56:01.810Z,-2.08
2023-01-18T03:57:01.786Z,-2.08
2023-01-18T03:58:01.757Z,-2.08
2023-01-18T03:59:01.777Z,-2.06
2023-01-18T04:00:01.845Z,-2.06
2023-01-18T04:01:01.767Z,-2.06
2023-01-18T04:02:01.772Z,-2.06
2023-01-18T04:03:02.225Z,-2.06
2023-01-18T04:04:01.685Z,-2.06
2023-01-18T04:05:01.681Z,-2.06
2023-01-18T04:06:01.675Z,-2.06
2023-01-18T04:07:01.695Z,-2.06
2023-01-18T04:08:01.652Z,-2.08
2023-01-18T04:09:01.651Z,-2.08
2023-01-18T04:10:01.632Z,-2.08
2023-01-18T04:11:01.612Z,-2.05
2023-01-18T04:12:01.657Z,-2.06
2023-01-18T04:13:01.940Z,-2.08
2023-01-18T04:14:01.587Z,-2.08
2023-01-18T04:15:01.573Z,-2.08
2023-01-18T04:16:01.633Z,-2.06
2023-01-18T04:17:01.540Z,-2.08
2023-01-18T04:18:01.586Z,-2.08
2023-01-18T04:19:01.528Z,-2.08
2023-01-18T04:20:01.534Z,-2.10
2023-01-18T04:21:01.532Z,-2.06
2023-01-18T04:22:01.488Z,-2.06
2023-01-18T04:23:01.651Z,-2.06
2023-01-18T04:24:01.477Z,-2.08
2023-01-18T04:25:01.470Z,-2.05
2023-01-18T04:26:01.445Z,-2.06
2023-01-18T04:27:01.422Z,-2.06
2023-01-18T04:28:01.447Z,-2.06
2023-01-18T04:29:01.410Z,-2.06
2023-01-18T04:30:01.418Z,-2.05
2023-01-18T04:31:01.439Z,-2.05
2023-01-18T04:32:01.379Z,-2.05
2023-01-18T04:33:01.653Z,-2.03
2023-01-18T04:34:01.368Z,-2.05
2023-01-18T04:35:01.354Z,-2.03
2023-01-18T04:36:01.345Z,-2.03
2023-01-18T04:37:01.333Z,-2.05
2023-01-18T04:38:01.311Z,-2.03
2023-01-18T04:39:01.296Z,-2.03
2023-01-18T04:40:01.302Z,-2.06
2023-01-18T04:41:01.286Z,-2.05
2023-01-18T04:42:01.280Z,-2.05
2023-01-18T04:43:01.471Z,-2.06
2023-01-18T04:44:01.245Z,-2.05
2023-01-18T04:45:01.271Z,-2.05
2023-01-18T04:46:01.253Z,-2.06
2023-01-18T04:47:01.213Z,-2.06
2023-01-18T04:48:01.185Z,-2.06
2023-01-18T04:49:01.191Z,-2.06
2023-01-18T04:50:01.185Z,-2.08
2023-01-18T04:51:01.199Z,-2.08
2023-01-18T04:52:01.148Z,-2.08
2023-01-18T04:53:01.536Z,-2.06
2023-01-18T04:54:01.150Z,-2.08
2023-01-18T04:55:01.137Z,-2.08
2023-01-18T04:56:01.126Z,-2.08
2023-01-18T04:57:01.112Z,-2.08
2023-01-18T04:58:01.143Z,-2.08
2023-01-18T04:59:01.123Z,-2.10
2023-01-18T05:00:01.087Z,-2.08
2023-01-18T05:01:01.169Z,-2.08
2023-01-18T05:02:01.111Z,-2.06
2023-01-18T05:03:01.456Z,-2.05
2023-01-18T05:04:01.054Z,-2.06
2023-01-18T05:05:01.029Z,-2.02
2023-01-18T05:06:01.017Z,-2.03
2023-01-18T05:07:00.991Z,-2.05
2023-01-18T05:08:01.017Z,-2.06
2023-01-18T05:09:00.995Z,-2.06
2023-01-18T05:10:00.964Z,-2.05
2023-01-18T05:11:00.985Z,-2.05
2023-01-18T05:12:00.972Z,-2.05
2023-01-18T05:13:01.398Z,-2.03
2023-01-18T05:14:00.914Z,-2.03
2023-01-18T05:15:00.923Z,-2.02
2023-01-18T05:16:00.949Z,-2.03
2023-01-18T05:17:00.885Z,-2.06
2023-01-18T05:18:00.927Z,-2.05
2023-01-18T05:19:00.913Z,-2.03
2023-01-18T05:20:00.909Z,-2.05
2023-01-18T05:21:00.863Z,-2.05
2023-01-18T05:22:00.847Z,-2.06
2023-01-18T05:23:01.631Z,-2.05
2023-01-18T05:24:00.836Z,-2.02
2023-01-18T05:25:00.806Z,-2.03
2023-01-18T05:26:00.834Z,-2.05
2023-01-18T05:27:00.804Z,-2.05
2023-01-18T05:28:00.757Z,-2.05
2023-01-18T05:29:00.762Z,-2.06
2023-01-18T05:30:00.752Z,-2.05
2023-01-18T05:31:00.724Z,-2.03
2023-01-18T05:32:00.756Z,-2.05
2023-01-18T05:33:01.139Z,-2.05
2023-01-18T05:34:00.691Z,-2.05
2023-01-18T05:35:00.690Z,-2.05
2023-01-18T05:36:00.706Z,-2.05
2023-01-18T05:37:00.677Z,-2.05
2023-01-18T05:38:00.674Z,-2.06
2023-01-18T05:39:00.695Z,-2.06
2023-01-18T05:40:00.625Z,-2.06
2023-01-18T05:41:00.642Z,-2.08
2023-01-18T05:42:00.625Z,-2.06
2023-01-18T05:43:01.012Z,-2.08
2023-01-18T05:44:00.616Z,-2.06
2023-01-18T05:45:00.603Z,-2.06
2023-01-18T05:46:01.130Z,-2.05
2023-01-18T05:47:00.554Z,-2.08
2023-01-18T05:48:00.565Z,-2.06
2023-01-18T05:49:00.607Z,-2.05
2023-01-18T05:50:00.537Z,-2.06
2023-01-18T05:51:00.539Z,-2.03
2023-01-18T05:52:00.496Z,-2.03
2023-01-18T05:53:01.023Z,-2.06
2023-01-18T05:54:00.480Z,-2.03
2023-01-18T05:55:00.491Z,-2.03
2023-01-18T05:56:00.461Z,-2.02
2023-01-18T05:57:00.469Z,-2.02
2023-01-18T05:58:00.427Z,-2.02
2023-01-18T05:59:00.431Z,-2.00
2023-01-18T06:00:00.467Z,-2.02
2023-01-18T06:01:00.443Z,-2.02
2023-01-18T06:02:00.491Z,-2.03
2023-01-18T06:03:00.776Z,-2.02
2023-01-18T06:04:00.618Z,-2.00
2023-01-18T06:05:00.349Z,-2.02
2023-01-18T06:06:00.367Z,-2.00
2023-01-18T06:07:00.336Z,-2.02
2023-01-18T06:08:00.348Z,-2.02
2023-01-18T06:09:00.311Z,-2.02
2023-01-18T06:10:00.304Z,-2.02
2023-01-18T06:11:00.305Z,-2.00
2023-01-18T06:12:00.282Z,-1.99
2023-01-18T06:13:00.594Z,-2.00
2023-01-18T06:14:00.314Z,-1.99
2023-01-18T06:15:00.271Z,-1.99
2023-01-18T06:16:00.225Z,-1.98
2023-01-18T06:17:00.220Z,-1.98
2023-01-18T06:18:00.196Z,-1.96
2023-01-18T06:19:00.268Z,-1.96
2023-01-18T06:20:00.211Z,-1.96
2023-01-18T06:21:01.547Z,-1.98
2023-01-18T06:22:00.188Z,-1.96
2023-01-18T06:23:00.666Z,-1.96
2023-01-18T06:24:00.197Z,-1.98
2023-01-18T06:25:00.227Z,-1.98
2023-01-18T06:26:00.137Z,-1.96
2023-01-18T06:27:00.132Z,-1.98
2023-01-18T06:28:00.124Z,-1.96
2023-01-18T06:29:00.177Z,-1.96
2023-01-18T06:30:00.103Z,-1.98
2023-01-18T06:31:00.106Z,-1.95
2023-01-18T06:32:00.168Z,-1.95
2023-01-18T06:33:00.441Z,-1.96
2023-01-18T06:34:00.087Z,-1.95
2023-01-18T06:35:00.020Z,-1.96
2023-01-18T06:36:00.003Z,-1.96
2023-01-18T06:37:00.033Z,-1.95
2023-01-18T06:37:59.996Z,-1.95
2023-01-18T06:39:00.007Z,-1.96
2023-01-18T06:40:02.578Z,-1.96
2023-01-18T06:40:59.958Z,-1.93
2023-01-18T06:41:59.982Z,-1.92
2023-01-18T06:43:00.335Z,-1.92
2023-01-18T06:43:59.928Z,-1.90
2023-01-18T06:44:59.952Z,-1.90
2023-01-18T06:45:59.938Z,-1.90
2023-01-18T06:46:59.914Z,-1.90
2023-01-18T06:47:59.873Z,-1.88
2023-01-18T06:48:59.898Z,-1.88
2023-01-18T06:49:59.875Z,-1.88
2023-01-18T06:50:59.851Z,-1.90
2023-01-18T06:51:59.858Z,-1.87
2023-01-18T06:53:00.308Z,-1.88
2023-01-18T06:53:59.838Z,-1.90
2023-01-18T06:54:59.834Z,-1.87
2023-01-18T06:55:59.787Z,-1.87
2023-01-18T06:56:59.782Z,-1.88
2023-01-18T06:57:59.816Z,-1.87
2023-01-18T06:58:59.763Z,-1.85
2023-01-18T06:59:59.745Z,-1.85
2023-01-18T07:00:59.891Z,-1.85
2023-01-18T07:01:59.964Z,-1.85
2023-01-18T07:03:00.221Z,-1.85
2023-01-18T07:03:59.779Z,-1.85
2023-01-18T07:04:59.704Z,-1.84
2023-01-18T07:05:59.689Z,-1.84
2023-01-18T07:06:59.714Z,-1.84
2023-01-18T07:07:59.676Z,-1.82
2023-01-18T07:08:59.667Z,-1.84
2023-01-18T07:09:59.663Z,-1.84
2023-01-18T07:10:59.652Z,-1.82
2023-01-18T07:11:59.636Z,-1.81
2023-01-18T07:13:00.074Z,-1.81
2023-01-18T07:13:59.610Z,-1.82
2023-01-18T07:15:03.095Z,-1.80
2023-01-18T07:16:01.118Z,-1.81
2023-01-18T07:16:59.663Z,-1.81
2023-01-18T07:17:59.556Z,-1.81
2023-01-18T07:18:59.585Z,-1.80
2023-01-18T07:19:59.537Z,-1.78
2023-01-18T07:20:59.520Z,-1.78
2023-01-18T07:21:59.531Z,-1.78
2023-01-18T07:22:59.978Z,-1.78
2023-01-18T07:23:59.810Z,-1.77
2023-01-18T07:24:59.499Z,-1.75
2023-01-18T07:25:59.466Z,-1.77
2023-01-18T07:26:59.448Z,-1.77
2023-01-18T07:28:00.028Z,-1.77
2023-01-18T07:28:59.444Z,-1.77
2023-01-18T07:29:59.421Z,-1.77
2023-01-18T07:31:01.209Z,-1.77
2023-01-18T07:31:59.436Z,-1.78
2023-01-18T07:32:59.857Z,-1.77
2023-01-18T07:33:59.408Z,-1.75
2023-01-18T07:34:59.637Z,-1.77
2023-01-18T07:35:59.421Z,-1.77
2023-01-18T07:36:59.369Z,-1.77
2023-01-18T07:37:59.337Z,-1.75
2023-01-18T07:38:59.338Z,-1.74
2023-01-18T07:39:59.312Z,-1.75
2023-01-18T07:40:59.323Z,-1.75
2023-01-18T07:41:59.301Z,-1.75
2023-01-18T07:42:59.643Z,-1.74
2023-01-18T07:43:59.277Z,-1.75
2023-01-18T07:44:59.253Z,-1.75
2023-01-18T07:45:59.322Z,-1.74
2023-01-18T07:46:59.254Z,-1.75
2023-01-18T07:47:59.231Z,-1.75
2023-01-18T07:48:59.242Z,-1.75
2023-01-18T07:49:59.209Z,-1.74
2023-01-18T07:50:59.216Z,-1.74
2023-01-18T07:51:59.189Z,-1.72
2023-01-18T07:52:59.557Z,-1.72
2023-01-18T07:53:59.312Z,-1.72
2023-01-18T07:54:59.717Z,-1.70
2023-01-18T07:55:59.154Z,-1.67
2023-01-18T07:56:59.130Z,-1.69
2023-01-18T07:57:59.152Z,-1.69
2023-01-18T07:58:59.122Z,-1.67
2023-01-18T07:59:59.137Z,-1.69
2023-01-18T08:00:59.092Z,-1.67
2023-01-18T08:01:59.125Z,-1.69
2023-01-18T08:03:00.571Z,-1.66
2023-01-18T08:03:59.104Z,-1.67
2023-01-18T08:04:59.156Z,-1.69
2023-01-18T08:05:59.026Z,-1.69
2023-01-18T08:06:59.026Z,-1.69
2023-01-18T08:07:59.039Z,-1.67
2023-01-18T08:08:59.024Z,-1.66
2023-01-18T08:09:58.986Z,-1.67
2023-01-18T08:10:58.990Z,-1.67
2023-01-18T08:11:58.963Z,-1.67
2023-01-18T08:12:59.312Z,-1.67
2023-01-18T08:13:58.960Z,-1.66
2023-01-18T08:14:58.933Z,-1.66
2023-01-18T08:15:59.039Z,-1.64
2023-01-18T08:16:58.929Z,-1.64
2023-01-18T08:17:58.893Z,-1.63
2023-01-18T08:18:58.922Z,-1.62
2023-01-18T08:19:58.887Z,-1.60
2023-01-18T08:20:58.879Z,-1.62
2023-01-18T08:21:58.849Z,-1.62
2023-01-18T08:22:59.294Z,-1.62
2023-01-18T08:23:58.847Z,-1.60
2023-01-18T08:24:58.857Z,-1.60
2023-01-18T08:25:58.811Z,-1.62
2023-01-18T08:26:58.795Z,-1.62
2023-01-18T08:27:58.802Z,-1.60
2023-01-18T08:28:58.852Z,-1.60
2023-01-18T08:29:58.772Z,-1.59
2023-01-18T08:30:58.777Z,-1.57
2023-01-18T08:31:58.788Z,-1.57
2023-01-18T08:32:59.152Z,-1.57
2023-01-18T08:33:58.732Z,-1.57
2023-01-18T08:34:58.717Z,-1.57
2023-01-18T08:35:59.033Z,-1.57
2023-01-18T08:36:58.768Z,-1.56
2023-01-18T08:37:58.675Z,-1.54
2023-01-18T08:38:58.678Z,-1.53
2023-01-18T08:39:58.652Z,-1.53
2023-01-18T08:40:58.707Z,-1.53
2023-01-18T08:41:58.630Z,-1.53
2023-01-18T08:42:58.920Z,-1.54
2023-01-18T08:43:58.655Z,-1.54
2023-01-18T08:44:58.686Z,-1.54
2023-01-18T08:45:58.737Z,-1.54
2023-01-18T08:46:58.581Z,-1.53
2023-01-18T08:47:58.883Z,-1.51
2023-01-18T08:48:58.593Z,-1.51
2023-01-18T08:49:58.556Z,-1.53
2023-01-18T08:50:58.524Z,-1.51
2023-01-18T08:51:59.779Z,-1.51
2023-01-18T08:52:58.979Z,-1.48
2023-01-18T08:53:58.518Z,-1.48
2023-01-18T08:54:58.522Z,-1.49
2023-01-18T08:55:58.483Z,-1.48
2023-01-18T08:56:58.534Z,-1.48
2023-01-18T08:57:59.080Z,-1.48
2023-01-18T08:58:58.730Z,-1.46
2023-01-18T08:59:58.471Z,-1.48
2023-01-18T09:00:59.271Z,-1.48
2023-01-18T09:01:58.485Z,-1.45
2023-01-18T09:02:58.929Z,-1.46
2023-01-18T09:03:58.551Z,-1.45
2023-01-18T09:04:58.406Z,-1.43
2023-01-18T09:05:58.466Z,-1.42
2023-01-18T09:06:58.363Z,-1.42
2023-01-18T09:07:59.272Z,-1.42
2023-01-18T09:08:58.368Z,-1.42
2023-01-18T09:09:58.325Z,-1.42
2023-01-18T09:10:59.086Z,-1.41
2023-01-18T09:11:58.582Z,-1.42
2023-01-18T09:12:58.628Z,-1.41
2023-01-18T09:14:01.066Z,-1.39
2023-01-18T09:14:58.265Z,-1.38
2023-01-18T09:15:58.868Z,-1.36
2023-01-18T09:16:58.288Z,-1.35
2023-01-18T09:17:58.257Z,-1.36
2023-01-18T09:18:58.398Z,-1.38
2023-01-18T09:19:58.221Z,-1.36
2023-01-18T09:20:58.222Z,-1.36
2023-01-18T09:21:58.195Z,-1.36
2023-01-18T09:22:59.448Z,-1.39
2023-01-18T09:23:58.179Z,-1.36
2023-01-18T09:24:58.157Z,-1.38
2023-01-18T09:25:58.230Z,-1.38
2023-01-18T09:26:58.195Z,-1.36
2023-01-18T09:27:58.131Z,-1.35
2023-01-18T09:28:58.130Z,-1.36
2023-01-18T09:29:58.108Z,-1.36
2023-01-18T09:30:58.118Z,-1.36
2023-01-18T09:31:58.087Z,-1.33
2023-01-18T09:32:58.515Z,-1.35
2023-01-18T09:34:09.612Z,-1.31
2023-01-18T09:34:58.075Z,-1.33
2023-01-18T09:35:58.033Z,-1.33
2023-01-18T09:36:58.044Z,-1.31
2023-01-18T09:37:58.042Z,-1.30
2023-01-18T09:38:57.998Z,-1.30
2023-01-18T09:39:58.007Z,-1.33
2023-01-18T09:40:57.995Z,-1.33
2023-01-18T09:41:57.975Z,-1.31
2023-01-18T09:42:58.396Z,-1.30
2023-01-18T09:43:57.984Z,-1.28
2023-01-18T09:44:57.934Z,-1.31
2023-01-18T09:45:57.924Z,-1.28
2023-01-18T09:46:58.134Z,-1.27
2023-01-18T09:47:57.900Z,-1.25
2023-01-18T09:48:57.898Z,-1.25
2023-01-18T09:49:57.930Z,-1.25
2023-01-18T09:50:57.871Z,-1.25
2023-01-18T09:51:57.862Z,-1.24
2023-01-18T09:52:58.307Z,-1.23
2023-01-18T09:53:57.849Z,-1.21
2023-01-18T09:54:58.875Z,-1.20
2023-01-18T09:55:57.839Z,-1.23
2023-01-18T09:56:57.799Z,-1.21
2023-01-18T09:57:57.788Z,-1.23
2023-01-18T09:58:58.650Z,-1.24
2023-01-18T09:59:57.781Z,-1.21
2023-01-18T10:00:57.886Z,-1.20
2023-01-18T10:01:58.083Z,-1.17
2023-01-18T10:02:58.101Z,-1.12
2023-01-18T10:03:57.725Z,-1.10
2023-01-18T10:04:57.767Z,-1.10
2023-01-18T10:05:57.723Z,-1.10
2023-01-18T10:06:57.726Z,-1.12
2023-01-18T10:07:57.880Z,-1.12
2023-01-18T10:08:57.657Z,-1.09
2023-01-18T10:09:57.696Z,-1.07
2023-01-18T10:10:57.740Z,-1.07
2023-01-18T10:11:58.611Z,-1.05
2023-01-18T10:12:57.994Z,-1.06
2023-01-18T10:13:57.670Z,-1.06
2023-01-18T10:14:57.647Z,-1.05
2023-01-18T10:15:57.628Z,-1.05
2023-01-18T10:16:57.580Z,-1.06
2023-01-18T10:17:57.619Z,-1.10
2023-01-18T10:18:57.568Z,-1.12
2023-01-18T10:19:57.662Z,-1.15
2023-01-18T10:20:57.547Z,-1.17
2023-01-18T10:21:57.533Z,-1.15
2023-01-18T10:22:58.037Z,-1.13
2023-01-18T10:23:57.511Z,-1.10
2023-01-18T10:24:57.607Z,-1.09
2023-01-18T10:25:57.500Z,-1.09
2023-01-18T10:26:57.476Z,-1.09
2023-01-18T10:27:57.451Z,-1.09
2023-01-18T10:28:57.547Z,-1.06
2023-01-18T10:29:57.432Z,-1.05
2023-01-18T10:30:58.227Z,-1.02
2023-01-18T10:31:57.434Z,-1.00
2023-01-18T10:32:57.900Z,-1.02
2023-01-18T10:33:57.431Z,-1.03
2023-01-18T10:34:57.455Z,-1.00
2023-01-18T10:35:57.831Z,-1.03
2023-01-18T10:36:57.362Z,-1.06
2023-01-18T10:37:57.751Z,-1.02
2023-01-18T10:38:58.264Z,-1.00
2023-01-18T10:39:57.352Z,-1.02
2023-01-18T10:40:57.388Z,-1.00
2023-01-18T10:41:57.311Z,-1.00
2023-01-18T10:42:57.636Z,-1.02
2023-01-18T10:43:57.406Z,-1.02
2023-01-18T10:44:58.262Z,-0.99
2023-01-18T10:45:57.314Z,-0.99
2023-01-18T10:46:57.258Z,-0.94
2023-01-18T10:47:57.236Z,-0.94
2023-01-18T10:48:57.233Z,-0.94
2023-01-18T10:49:57.287Z,-0.94
2023-01-18T10:50:57.224Z,-0.91
2023-01-18T10:51:57.180Z,-0.86
2023-01-18T10:52:57.709Z,-0.83
2023-01-18T10:53:57.195Z,-0.81
2023-01-18T10:54:57.170Z,-0.83
2023-01-18T10:55:57.162Z,-0.80
2023-01-18T10:56:57.161Z,-0.77
2023-01-18T10:57:57.496Z,-0.78
2023-01-18T10:58:58.177Z,-0.78
2023-01-18T10:59:57.150Z,-0.83
2023-01-18T11:00:57.212Z,-0.83
2023-01-18T11:01:57.457Z,-0.81
2023-01-18T11:02:57.654Z,-0.81
2023-01-18T11:03:57.110Z,-0.84
2023-01-18T11:04:57.098Z,-0.86
2023-01-18T11:05:57.041Z,-0.81
2023-01-18T11:06:57.740Z,-0.83
2023-01-18T11:07:57.035Z,-0.83
2023-01-18T11:08:57.031Z,-0.80
2023-01-18T11:09:57.003Z,-0.78
2023-01-18T11:10:57.030Z,-0.75
2023-01-18T11:11:56.994Z,-0.72
2023-01-18T11:12:57.287Z,-0.75
2023-01-18T11:13:56.973Z,-0.75
2023-01-18T11:14:57.023Z,-0.75
2023-01-18T11:15:58.439Z,-0.78
2023-01-18T11:16:56.927Z,-0.81
2023-01-18T11:17:56.931Z,-0.80
2023-01-18T11:18:56.896Z,-0.78
2023-01-18T11:19:56.881Z,-0.81
2023-01-18T11:20:56.920Z,-0.81
2023-01-18T11:21:56.882Z,-0.80
2023-01-18T11:22:57.384Z,-0.75
2023-01-18T11:23:56.837Z,-0.78
2023-01-18T11:24:56.854Z,-0.77
2023-01-18T11:25:56.868Z,-0.72
2023-01-18T11:26:56.817Z,-0.77
2023-01-18T11:27:57.291Z,-0.75
2023-01-18T11:28:56.793Z,-0.75
2023-01-18T11:29:56.786Z,-0.70
2023-01-18T11:30:56.800Z,-0.69
2023-01-18T11:31:56.853Z,-0.68
2023-01-18T11:32:57.196Z,-0.65
2023-01-18T11:33:56.765Z,-0.59
2023-01-18T11:34:56.759Z,-0.48
2023-01-18T11:35:56.703Z,-0.44
2023-01-18T11:36:56.690Z,-0.44
2023-01-18T11:37:57.177Z,-0.42
2023-01-18T11:38:56.719Z,-0.44
2023-01-18T11:39:56.666Z,-0.42
2023-01-18T11:40:56.680Z,-0.45
2023-01-18T11:41:56.639Z,-0.45
2023-01-18T11:42:56.649Z,-0.47
2023-01-18T11:43:56.639Z,-0.44
2023-01-18T11:44:56.601Z,-0.41
2023-01-18T11:45:56.631Z,-0.44
2023-01-18T11:46:56.614Z,-0.45
2023-01-18T11:47:57.312Z,-0.44
2023-01-18T11:48:56.595Z,-0.48
2023-01-18T11:49:56.552Z,-0.52
2023-01-18T11:50:56.547Z,-0.50
2023-01-18T11:51:56.534Z,-0.50
2023-01-18T11:52:56.533Z,-0.50
2023-01-18T11:53:56.542Z,-0.51
2023-01-18T11:54:56.516Z,-0.55
2023-01-18T11:55:56.599Z,-0.55
2023-01-18T11:56:56.477Z,-0.55
2023-01-18T11:57:56.474Z,-0.54
2023-01-18T11:58:56.890Z,-0.60
2023-01-18T11:59:56.441Z,-0.59
2023-01-18T12:00:56.459Z,-0.60
2023-01-18T12:01:56.503Z,-0.62
2023-01-18T12:02:56.875Z,-0.59
2023-01-18T12:03:56.401Z,-0.57
2023-01-18T12:04:56.468Z,-0.57
2023-01-18T12:05:56.361Z,-0.59
2023-01-18T12:06:56.378Z,-0.55
2023-01-18T12:07:56.411Z,-0.59
2023-01-18T12:08:56.337Z,-0.60
2023-01-18T12:09:56.342Z,-0.60
2023-01-18T12:10:56.356Z,-0.60
2023-01-18T12:12:03.678Z,-0.60
2023-01-18T12:12:56.323Z,-0.60
2023-01-18T12:13:56.309Z,-0.62
2023-01-18T12:14:56.273Z,-0.59
2023-01-18T12:15:56.307Z,-0.59
2023-01-18T12:16:56.297Z,-0.59
2023-01-18T12:18:11.518Z,-0.59
2023-01-18T12:18:56.240Z,-0.57
2023-01-18T12:19:58.284Z,-0.57
2023-01-18T12:20:56.202Z,-0.60
2023-01-18T12:21:56.198Z,-0.62
2023-01-18T12:22:56.197Z,-0.62
2023-01-18T12:23:56.172Z,-0.60
2023-01-18T12:24:56.242Z,-0.62
2023-01-18T12:26:10.994Z,-0.63
2023-01-18T12:26:56.160Z,-0.62
2023-01-18T12:27:56.140Z,-0.62
2023-01-18T12:28:56.122Z,-0.65
2023-01-18T12:29:56.135Z,-0.66
2023-01-18T12:30:56.171Z,-0.69
2023-01-18T12:31:56.137Z,-0.69
2023-01-18T12:32:56.367Z,-0.68
2023-01-18T12:33:56.061Z,-0.68
2023-01-18T12:34:56.054Z,-0.68
2023-01-18T12:35:56.051Z,-0.66
2023-01-18T12:36:56.047Z,-0.68
2023-01-18T12:37:56.057Z,-0.66
2023-01-18T12:38:56.052Z,-0.68
2023-01-18T12:39:56.004Z,-0.69
2023-01-18T12:40:56.000Z,-0.70
2023-01-18T12:41:56.037Z,-0.70
2023-01-18T12:42:55.998Z,-0.72
2023-01-18T12:43:57.568Z,-0.70
2023-01-18T12:44:55.960Z,-0.70
2023-01-18T12:45:56.032Z,-0.72
2023-01-18T12:46:55.954Z,-0.70
2023-01-18T12:47:55.945Z,-0.70
2023-01-18T12:48:55.926Z,-0.70
2023-01-18T12:49:55.893Z,-0.70
2023-01-18T12:50:55.871Z,-0.72
2023-01-18T12:52:06.067Z,-0.70